Leopoldsburg, Belgium
Current Conditions -  °F | °C
As of 11:55 AM on Tuesday 21 Oct 2014 (Local Time) from EBBL Reporting Station
Light Rain Light Rain  
Wind Chill: 54°   Ceiling: 2200
Heat Index: 54°   Visibility: 6mi
Dew Point: 50°   Wind: 13mph
Humidity: 88%   Direction: 210°SSW
Pressure: 29.65"   Gusts: NA
Location:  51.12°N, 5.25°E
Report Text: EBBL 210955Z 21011KT 9999 -RA FEW016 BKN022 12/10 Q1004 WHT WHT TEMPO GRN
Loading
Personal Weather Stations






























Interactive Weather Map
Tropical Storm Tracking
New forecast layout! Learn more

10-Day Weather Forecast

Advertisements
Track Severe Weather on mobile